createdAt,value
2023-10-04T00:02:13.719Z,3.55
2023-10-04T00:04:44.844Z,3.13
2023-10-04T00:07:12.726Z,3.58
2023-10-04T00:09:39.753Z,3.00
2023-10-04T00:12:07.127Z,2.97
2023-10-04T00:14:33.995Z,3.75
2023-10-04T00:17:01.408Z,2.92
2023-10-04T00:19:29.365Z,2.97
2023-10-04T00:21:56.628Z,3.72
2023-10-04T00:24:23.553Z,2.25
2023-10-04T00:26:51.148Z,3.15
2023-10-04T00:29:19.442Z,3.33
2023-10-04T00:31:48.789Z,2.95
2023-10-04T00:34:15.822Z,2.92
2023-10-04T00:36:45.298Z,4.90
2023-10-04T00:39:14.552Z,4.97
2023-10-04T00:41:41.928Z,5.93
2023-10-04T00:44:09.073Z,4.05
2023-10-04T00:46:38.509Z,3.80
2023-10-04T00:49:06.253Z,3.72
2023-10-04T00:51:36.948Z,2.75
2023-10-04T00:54:08.977Z,3.38
2023-10-04T00:56:39.998Z,4.03
2023-10-04T00:59:07.341Z,2.60
2023-10-04T01:01:34.746Z,2.42
2023-10-04T01:04:01.928Z,3.22
2023-10-04T01:06:30.342Z,4.68
2023-10-04T01:08:57.537Z,3.05
2023-10-04T01:11:24.687Z,1.92
2023-10-04T01:14:07.456Z,3.38
2023-10-04T01:16:36.394Z,1.88
2023-10-04T01:19:04.520Z,1.75
2023-10-04T01:21:31.890Z,3.63
2023-10-04T01:23:59.269Z,2.13
2023-10-04T01:26:27.584Z,2.10
2023-10-04T01:28:54.483Z,1.42
2023-10-04T01:31:21.666Z,2.78
2023-10-04T01:33:49.317Z,2.72
2023-10-04T01:36:17.194Z,3.35
2023-10-04T01:38:44.562Z,1.90
2023-10-04T01:41:11.714Z,1.17
2023-10-04T01:43:39.441Z,1.38
2023-10-04T01:46:06.973Z,1.92
2023-10-04T01:48:37.094Z,1.83
2023-10-04T01:51:05.566Z,1.77
2023-10-04T01:53:34.907Z,2.13
2023-10-04T01:56:04.457Z,1.95
2023-10-04T01:58:32.421Z,1.58
2023-10-04T02:01:02.441Z,2.75
2023-10-04T02:03:29.552Z,2.83
2023-10-04T02:06:01.201Z,2.15
2023-10-04T02:08:29.373Z,1.38
2023-10-04T02:10:58.626Z,1.08
2023-10-04T02:13:27.019Z,1.48
2023-10-04T02:15:54.984Z,1.80
2023-10-04T02:18:22.504Z,1.52
2023-10-04T02:20:54.892Z,2.40
2023-10-04T02:23:22.527Z,1.55
2023-10-04T02:25:50.676Z,2.20
2023-10-04T02:28:24.505Z,1.88
2023-10-04T02:30:55.981Z,1.75
2023-10-04T02:33:23.729Z,2.22
2023-10-04T02:35:52.182Z,4.80
2023-10-04T02:38:27.903Z,2.00
2023-10-04T02:40:55.624Z,2.30
2023-10-04T02:43:29.239Z,2.42
2023-10-04T02:45:58.297Z,1.63
2023-10-04T02:48:25.466Z,2.75
2023-10-04T02:50:53.466Z,1.30
2023-10-04T02:53:26.072Z,2.75
2023-10-04T02:55:57.126Z,1.83
2023-10-04T02:58:24.083Z,3.00
2023-10-04T03:00:51.981Z,5.32
2023-10-04T03:03:23.363Z,1.90
2023-10-04T03:05:52.708Z,3.88
2023-10-04T03:08:19.587Z,2.08
2023-10-04T03:10:51.081Z,3.08
2023-10-04T03:13:23.956Z,1.75
2023-10-04T03:15:51.840Z,3.55
2023-10-04T03:18:20.807Z,3.15
2023-10-04T03:21:06.981Z,2.97
2023-10-04T03:23:35.984Z,2.35
2023-10-04T03:26:05.059Z,2.85
2023-10-04T03:28:35.131Z,2.45
2023-10-04T03:31:05.695Z,2.55
2023-10-04T03:33:41.817Z,3.15
2023-10-04T03:36:09.225Z,2.08
2023-10-04T03:38:36.445Z,4.07
2023-10-04T03:41:05.125Z,2.17
2023-10-04T03:43:32.273Z,2.20
2023-10-04T03:46:06.637Z,4.95
2023-10-04T03:48:38.639Z,1.58
2023-10-04T03:51:06.092Z,2.28
2023-10-04T03:53:32.925Z,1.15
2023-10-04T03:56:05.537Z,3.20
2023-10-04T03:58:36.100Z,3.67
2023-10-04T04:01:03.314Z,0.98
2023-10-04T04:03:31.736Z,3.58
2023-10-04T04:05:59.165Z,2.17
2023-10-04T04:08:26.973Z,2.05
2023-10-04T04:10:54.928Z,2.42
2023-10-04T04:13:21.776Z,2.20
2023-10-04T04:15:49.854Z,3.60
2023-10-04T04:18:21.689Z,2.78
2023-10-04T04:20:49.164Z,4.68
2023-10-04T04:23:19.918Z,1.00
2023-10-04T04:25:48.881Z,1.85
2023-10-04T04:28:18.703Z,1.45
2023-10-04T04:30:47.796Z,2.92
2023-10-04T04:33:17.981Z,2.13
2023-10-04T04:35:47.858Z,1.73
2023-10-04T04:38:23.500Z,2.47
2023-10-04T04:40:53.410Z,1.27
2023-10-04T04:43:23.889Z,1.27
2023-10-04T04:45:52.668Z,10.45
2023-10-04T04:48:20.834Z,3.63
2023-10-04T04:50:49.510Z,2.83
2023-10-04T04:53:19.563Z,3.63
2023-10-04T04:55:47.036Z,1.73
2023-10-04T04:58:14.593Z,1.90
2023-10-04T05:00:45.548Z,3.80
2023-10-04T05:03:13.057Z,3.20
2023-10-04T05:05:40.897Z,2.95
2023-10-04T05:08:09.384Z,3.55
2023-10-04T05:10:41.953Z,2.25
2023-10-04T05:13:09.746Z,1.65
2023-10-04T05:15:40.681Z,2.10
2023-10-04T05:18:16.582Z,2.25
2023-10-04T05:20:43.963Z,3.10
2023-10-04T05:23:11.098Z,5.72
2023-10-04T05:25:37.935Z,1.45
2023-10-04T05:28:10.512Z,4.13
2023-10-04T05:30:40.283Z,2.85
2023-10-04T05:33:10.525Z,1.55
2023-10-04T05:35:38.069Z,2.47
2023-10-04T05:38:05.755Z,3.83
2023-10-04T05:40:32.842Z,2.83
2023-10-04T05:43:00.357Z,4.72
2023-10-04T05:45:27.531Z,4.80
2023-10-04T05:47:54.786Z,2.35
2023-10-04T05:50:24.519Z,3.28
2023-10-04T05:52:52.006Z,5.07
2023-10-04T05:55:19.134Z,6.00
2023-10-04T05:57:47.005Z,3.33
2023-10-04T06:00:26.050Z,2.75
2023-10-04T06:02:57.005Z,17.15
2023-10-04T06:05:24.405Z,6.38
2023-10-04T06:07:52.595Z,2.75
2023-10-04T06:10:19.547Z,1.80
2023-10-04T06:12:48.067Z,2.72
2023-10-04T06:15:17.378Z,5.10
2023-10-04T06:17:46.102Z,3.75
2023-10-04T06:20:26.292Z,5.30
2023-10-04T06:23:00.798Z,4.55
2023-10-04T06:25:28.855Z,3.67
2023-10-04T06:27:57.614Z,3.40
2023-10-04T06:30:29.769Z,2.25
2023-10-04T06:32:58.467Z,4.45
2023-10-04T06:35:25.897Z,3.63
2023-10-04T06:37:57.268Z,2.80
2023-10-04T06:40:24.728Z,2.00
2023-10-04T06:42:53.101Z,1.65
2023-10-04T06:45:21.577Z,3.38
2023-10-04T06:47:50.925Z,3.83
2023-10-04T06:50:19.808Z,9.57
2023-10-04T06:52:48.411Z,4.13
2023-10-04T06:55:16.542Z,1.83
2023-10-04T06:57:45.097Z,2.92
2023-10-04T07:00:16.892Z,2.78
2023-10-04T07:02:54.936Z,2.38
2023-10-04T07:05:23.602Z,2.95
2023-10-04T07:07:53.062Z,3.17
2023-10-04T07:10:23.169Z,3.78
2023-10-04T07:12:52.942Z,2.72
2023-10-04T07:15:20.467Z,5.47
2023-10-04T07:17:48.944Z,3.22
2023-10-04T07:20:16.763Z,2.58
2023-10-04T07:22:49.061Z,4.45
2023-10-04T07:25:16.097Z,2.63
2023-10-04T07:27:45.008Z,1.90
2023-10-04T07:30:14.150Z,3.10
2023-10-04T07:32:45.166Z,1.98
2023-10-04T07:35:17.321Z,2.00
2023-10-04T07:37:44.931Z,2.95
2023-10-04T07:40:14.397Z,2.60
2023-10-04T07:42:42.712Z,1.55
2023-10-04T07:45:11.889Z,1.67
2023-10-04T07:47:39.537Z,2.13
2023-10-04T07:50:10.752Z,1.63
2023-10-04T07:52:38.822Z,2.13
2023-10-04T07:55:06.583Z,2.28
2023-10-04T07:57:37.194Z,1.88
2023-10-04T08:00:09.446Z,3.70
2023-10-04T08:02:36.715Z,3.03
2023-10-04T08:05:05.418Z,2.47
2023-10-04T08:07:33.923Z,1.20
2023-10-04T08:10:00.748Z,1.65
2023-10-04T08:12:27.879Z,3.05
2023-10-04T08:14:58.046Z,1.42
2023-10-04T08:17:25.187Z,1.88
2023-10-04T08:19:52.049Z,1.92
2023-10-04T08:22:19.152Z,1.38
2023-10-04T08:24:48.134Z,2.42
2023-10-04T08:27:16.889Z,1.48
2023-10-04T08:29:45.177Z,2.47
2023-10-04T08:32:12.297Z,3.88
2023-10-04T08:34:39.395Z,1.60
2023-10-04T08:37:06.557Z,1.80
2023-10-04T08:39:34.384Z,1.27
2023-10-04T08:42:02.509Z,1.13
2023-10-04T08:44:29.325Z,1.60
2023-10-04T08:46:58.304Z,1.40
2023-10-04T08:49:25.377Z,2.15
2023-10-04T08:52:15.941Z,2.03
2023-10-04T08:54:42.824Z,1.23
2023-10-04T08:57:16.180Z,3.20
2023-10-04T08:59:43.065Z,6.07
2023-10-04T09:02:10.234Z,2.08
2023-10-04T09:04:37.652Z,1.65
2023-10-04T09:07:05.043Z,1.40
2023-10-04T09:09:33.148Z,3.00
2023-10-04T09:12:00.318Z,1.85
2023-10-04T09:14:28.578Z,2.10
2023-10-04T09:17:06.736Z,1.02
2023-10-04T09:19:33.837Z,1.65
2023-10-04T09:22:07.988Z,1.63
2023-10-04T09:24:57.628Z,2.72
2023-10-04T09:27:24.890Z,2.58
2023-10-04T09:29:54.681Z,2.25
2023-10-04T09:32:35.550Z,3.28
2023-10-04T09:35:02.608Z,1.50
2023-10-04T09:37:29.673Z,2.05
2023-10-04T09:40:17.220Z,1.58
2023-10-04T09:42:55.034Z,2.55
2023-10-04T09:45:22.262Z,1.30
2023-10-04T09:47:53.343Z,1.63
2023-10-04T09:50:24.829Z,1.95
2023-10-04T09:52:52.505Z,1.88
2023-10-04T09:55:23.015Z,1.42
2023-10-04T09:57:50.301Z,1.15
2023-10-04T10:00:20.119Z,2.55
2023-10-04T10:02:51.201Z,1.17
2023-10-04T10:05:37.263Z,1.05
2023-10-04T10:08:07.780Z,2.63
2023-10-04T10:10:38.812Z,4.50
2023-10-04T10:13:06.147Z,2.53
2023-10-04T10:15:33.117Z,2.17
2023-10-04T10:18:01.020Z,1.38
2023-10-04T10:20:27.965Z,3.45
2023-10-04T10:22:58.820Z,1.35
2023-10-04T10:25:30.621Z,1.67
2023-10-04T10:27:58.769Z,2.10
2023-10-04T10:30:32.255Z,1.77
2023-10-04T10:33:00.544Z,0.70
2023-10-04T10:35:51.986Z,1.92
2023-10-04T10:38:32.422Z,0.75
2023-10-04T10:41:00.237Z,3.78
2023-10-04T10:43:27.532Z,1.35
2023-10-04T10:45:54.457Z,1.45
2023-10-04T10:48:31.860Z,1.38
2023-10-04T10:50:58.789Z,1.50
2023-10-04T10:53:26.037Z,1.23
2023-10-04T10:55:52.911Z,4.68
2023-10-04T10:58:20.131Z,1.48
2023-10-04T11:00:47.435Z,1.30
2023-10-04T11:03:15.849Z,1.98
2023-10-04T11:05:43.091Z,1.35
2023-10-04T11:08:13.677Z,1.20
2023-10-04T11:10:41.695Z,0.80
2023-10-04T11:13:13.204Z,1.95
2023-10-04T11:15:43.091Z,1.40
2023-10-04T11:18:14.490Z,1.67
2023-10-04T11:20:41.378Z,0.90
2023-10-04T11:23:08.671Z,1.90
2023-10-04T11:25:37.526Z,1.33
2023-10-04T11:28:05.159Z,2.03
2023-10-04T11:30:34.724Z,1.70
2023-10-04T11:33:02.308Z,2.70
2023-10-04T11:35:33.573Z,2.47
2023-10-04T11:38:06.517Z,1.42
2023-10-04T11:40:33.792Z,1.17
2023-10-04T11:43:01.917Z,1.20
2023-10-04T11:45:29.556Z,1.63
2023-10-04T11:48:07.566Z,1.85
2023-10-04T11:50:54.912Z,2.15
2023-10-04T11:53:43.246Z,1.48
2023-10-04T11:56:11.514Z,1.88
2023-10-04T11:58:51.630Z,1.80
2023-10-04T12:01:23.714Z,2.25
2023-10-04T12:03:51.744Z,2.03
2023-10-04T12:06:30.640Z,1.73
2023-10-04T12:08:59.241Z,1.70
2023-10-04T12:11:35.067Z,2.00
2023-10-04T12:14:08.218Z,2.13
2023-10-04T12:16:38.457Z,2.25
2023-10-04T12:19:05.663Z,2.03
2023-10-04T12:21:32.788Z,1.25
2023-10-04T12:23:59.966Z,2.58
2023-10-04T12:26:27.630Z,2.25
2023-10-04T12:28:54.751Z,2.25
2023-10-04T12:31:21.624Z,1.42
2023-10-04T12:33:49.992Z,1.98
2023-10-04T12:36:16.808Z,2.00
2023-10-04T12:38:44.010Z,1.52
2023-10-04T12:41:11.531Z,2.63
2023-10-04T12:43:38.904Z,2.88
2023-10-04T12:46:06.167Z,2.22
2023-10-04T12:48:33.516Z,1.42
2023-10-04T12:51:01.185Z,2.03
2023-10-04T12:53:28.880Z,2.47
2023-10-04T12:55:55.776Z,1.40
2023-10-04T12:58:23.319Z,1.05
2023-10-04T13:00:54.755Z,3.40
2023-10-04T13:03:22.090Z,1.40
2023-10-04T13:05:50.075Z,3.03
2023-10-04T13:08:17.426Z,1.48
2023-10-04T13:10:44.796Z,1.88
2023-10-04T13:13:13.503Z,2.88
2023-10-04T13:15:40.849Z,1.42
2023-10-04T13:18:10.121Z,1.58
2023-10-04T13:20:39.082Z,2.08
2023-10-04T13:23:06.932Z,2.33
2023-10-04T13:25:34.723Z,1.20
2023-10-04T13:28:02.713Z,2.28
2023-10-04T13:30:30.021Z,2.45
2023-10-04T13:32:59.119Z,2.38
2023-10-04T13:35:26.221Z,2.00
2023-10-04T13:37:53.991Z,1.73
2023-10-04T13:40:24.337Z,2.00
2023-10-04T13:42:53.568Z,1.88
2023-10-04T13:45:23.334Z,1.58
2023-10-04T13:47:50.746Z,1.60
2023-10-04T13:50:23.511Z,2.22
2023-10-04T13:52:50.852Z,2.97
2023-10-04T13:55:18.129Z,1.88
2023-10-04T13:57:45.902Z,2.53
2023-10-04T14:00:24.022Z,2.10
2023-10-04T14:03:00.374Z,1.75
2023-10-04T14:05:27.497Z,2.58
2023-10-04T14:07:55.669Z,1.50
2023-10-04T14:10:26.716Z,1.35
2023-10-04T14:12:59.242Z,2.75
2023-10-04T14:15:27.012Z,2.50
2023-10-04T14:17:55.445Z,3.85
2023-10-04T14:20:22.919Z,2.35
2023-10-04T14:22:50.237Z,2.08
2023-10-04T14:25:17.106Z,2.25
2023-10-04T14:27:47.240Z,2.88
2023-10-04T14:30:14.891Z,2.40
2023-10-04T14:32:44.583Z,3.30
2023-10-04T14:35:11.787Z,2.13
2023-10-04T14:37:39.166Z,3.75
2023-10-04T14:40:12.488Z,1.92
2023-10-04T14:42:39.853Z,3.22
2023-10-04T14:45:08.244Z,1.83
2023-10-04T14:47:35.789Z,2.70
2023-10-04T14:50:05.795Z,2.67
2023-10-04T14:52:33.363Z,2.22
2023-10-04T14:55:02.464Z,2.15
2023-10-04T14:57:29.823Z,1.52
2023-10-04T14:59:56.691Z,4.07
2023-10-04T15:02:24.754Z,3.55
2023-10-04T15:04:51.797Z,2.88
2023-10-04T15:07:19.288Z,2.75
2023-10-04T15:09:47.143Z,2.80
2023-10-04T15:12:14.381Z,1.90
2023-10-04T15:14:41.209Z,4.50
2023-10-04T15:17:08.879Z,3.10
2023-10-04T15:19:35.750Z,4.38
2023-10-04T15:22:04.413Z,4.22
2023-10-04T15:24:32.016Z,4.30
2023-10-04T15:26:59.277Z,3.60
2023-10-04T15:29:28.004Z,3.40
2023-10-04T15:31:55.806Z,3.20
2023-10-04T15:34:24.865Z,3.08
2023-10-04T15:36:52.002Z,3.70
2023-10-04T15:39:30.910Z,4.18
2023-10-04T15:41:58.754Z,3.28
2023-10-04T15:44:26.002Z,2.47
2023-10-04T15:46:54.247Z,3.55
2023-10-04T15:49:21.147Z,5.20
2023-10-04T15:51:48.252Z,5.05
2023-10-04T15:54:15.166Z,2.65
2023-10-04T15:56:42.737Z,2.50
2023-10-04T15:59:09.600Z,2.72
2023-10-04T16:01:36.929Z,2.70
2023-10-04T16:04:04.409Z,2.72
2023-10-04T16:06:32.609Z,3.35
2023-10-04T16:09:02.464Z,3.53
2023-10-04T16:11:29.800Z,3.17
2023-10-04T16:13:56.689Z,2.95
2023-10-04T16:16:23.825Z,4.50
2023-10-04T16:18:50.703Z,3.47
2023-10-04T16:21:23.946Z,3.47
2023-10-04T16:24:03.625Z,4.07
2023-10-04T16:26:30.867Z,6.20
2023-10-04T16:28:57.706Z,2.63
2023-10-04T16:31:25.040Z,3.05
2023-10-04T16:33:51.901Z,3.10
2023-10-04T16:36:19.006Z,4.55
2023-10-04T16:38:45.839Z,3.15
2023-10-04T16:41:12.940Z,4.80
2023-10-04T16:43:39.850Z,3.90
2023-10-04T16:46:07.031Z,4.32
2023-10-04T16:48:34.106Z,5.00
2023-10-04T16:51:02.531Z,5.15
2023-10-04T16:53:29.757Z,2.47
2023-10-04T16:55:56.829Z,3.28
2023-10-04T16:58:23.648Z,3.20
2023-10-04T17:00:50.840Z,5.20
2023-10-04T17:03:17.899Z,4.35
2023-10-04T17:05:45.978Z,11.10
2023-10-04T17:08:12.828Z,4.25
2023-10-04T17:10:39.920Z,4.93
2023-10-04T17:13:06.808Z,6.43
2023-10-04T17:15:33.974Z,8.48
2023-10-04T17:18:01.329Z,11.27
2023-10-04T17:20:28.584Z,7.03
2023-10-04T17:22:55.596Z,6.43
2023-10-04T17:25:23.853Z,8.90
2023-10-04T17:27:50.946Z,7.35
2023-10-04T17:30:18.508Z,6.00
2023-10-04T17:32:46.626Z,6.95
2023-10-04T17:35:15.122Z,7.90
2023-10-04T17:37:42.288Z,5.35
2023-10-04T17:40:11.010Z,7.70
2023-10-04T17:42:38.235Z,7.05
2023-10-04T17:45:05.829Z,8.63
2023-10-04T17:47:33.714Z,7.22
2023-10-04T17:50:01.070Z,7.55
2023-10-04T17:52:27.984Z,8.93
2023-10-04T17:54:58.262Z,9.35
2023-10-04T17:57:26.692Z,7.75
2023-10-04T17:59:53.978Z,9.10
2023-10-04T18:02:22.148Z,7.85
2023-10-04T18:04:49.400Z,12.18
2023-10-04T18:07:16.578Z,12.43
2023-10-04T18:09:45.180Z,13.93
2023-10-04T18:12:12.217Z,13.45
2023-10-04T18:14:41.586Z,13.75
2023-10-04T18:17:08.367Z,12.07
2023-10-04T18:19:35.642Z,14.30
2023-10-04T18:22:02.851Z,15.98
2023-10-04T18:24:30.075Z,14.68
2023-10-04T18:26:56.876Z,11.48
2023-10-04T18:29:24.044Z,13.65
2023-10-04T18:31:51.066Z,13.68
2023-10-04T18:34:19.586Z,13.93
2023-10-04T18:36:46.883Z,15.73
2023-10-04T18:39:19.914Z,16.75
2023-10-04T18:41:49.722Z,14.98
2023-10-04T18:44:16.832Z,18.30
2023-10-04T18:46:45.183Z,18.55
2023-10-04T18:49:12.342Z,19.10
2023-10-04T18:51:39.271Z,21.27
2023-10-04T18:54:06.952Z,24.85
2023-10-04T18:56:33.900Z,24.73
2023-10-04T18:59:01.218Z,24.92
2023-10-04T19:01:28.470Z,27.60
2023-10-04T19:03:58.772Z,29.50
2023-10-04T19:06:26.305Z,27.13
2023-10-04T19:08:53.593Z,31.65
2023-10-04T19:11:24.298Z,32.40
2023-10-04T19:13:51.458Z,33.65
2023-10-04T19:16:18.428Z,28.42
2023-10-04T19:18:45.585Z,29.17
2023-10-04T19:21:12.432Z,31.33
2023-10-04T19:23:39.562Z,31.52
2023-10-04T19:26:06.315Z,30.05
2023-10-04T19:28:34.462Z,31.55
2023-10-04T19:31:02.506Z,29.27
2023-10-04T19:33:30.576Z,29.10
2023-10-04T19:35:58.666Z,30.52
2023-10-04T19:38:28.061Z,25.85
2023-10-04T19:40:55.342Z,27.08
2023-10-04T19:43:22.526Z,26.20
2023-10-04T19:45:49.945Z,28.38
2023-10-04T19:48:17.150Z,28.00
2023-10-04T19:50:44.310Z,25.42
2023-10-04T19:53:12.913Z,22.95
2023-10-04T19:55:40.071Z,24.92
2023-10-04T19:58:07.196Z,23.52
2023-10-04T20:00:36.105Z,25.15
2023-10-04T20:03:04.795Z,24.90
2023-10-04T20:05:32.212Z,21.52
2023-10-04T20:08:00.300Z,22.08
2023-10-04T20:10:35.911Z,24.15
2023-10-04T20:13:07.300Z,22.65
2023-10-04T20:15:38.718Z,20.98
2023-10-04T20:18:19.891Z,20.73
2023-10-04T20:20:47.021Z,18.13
2023-10-04T20:23:14.194Z,19.85
2023-10-04T20:25:42.892Z,22.98
2023-10-04T20:28:10.264Z,20.73
2023-10-04T20:30:37.389Z,19.60
2023-10-04T20:33:04.935Z,19.00
2023-10-04T20:35:32.383Z,23.80
2023-10-04T20:38:00.062Z,18.50
2023-10-04T20:40:27.176Z,19.10
2023-10-04T20:42:54.781Z,17.73
2023-10-04T20:45:21.767Z,19.80
2023-10-04T20:47:50.437Z,19.63
2023-10-04T20:50:17.439Z,20.05
2023-10-04T20:52:45.588Z,20.75
2023-10-04T20:55:13.710Z,20.20
2023-10-04T20:57:41.408Z,18.13
2023-10-04T21:00:11.302Z,21.48
2023-10-04T21:02:39.331Z,18.48
2023-10-04T21:05:07.068Z,17.05
2023-10-04T21:07:34.159Z,19.02
2023-10-04T21:10:01.118Z,18.58
2023-10-04T21:12:28.315Z,17.77
2023-10-04T21:14:55.138Z,17.60
2023-10-04T21:17:22.263Z,19.70
2023-10-04T21:19:49.014Z,16.45
2023-10-04T21:22:16.942Z,18.27
2023-10-04T21:24:48.266Z,14.38
2023-10-04T21:27:23.843Z,16.42
2023-10-04T21:29:51.355Z,16.52
2023-10-04T21:32:29.494Z,18.63
2023-10-04T21:34:57.662Z,14.07
2023-10-04T21:37:30.472Z,14.70
2023-10-04T21:39:57.609Z,17.05
2023-10-04T21:42:25.144Z,15.13
2023-10-04T21:44:52.695Z,15.57
2023-10-04T21:47:29.130Z,15.63
2023-10-04T21:49:59.251Z,12.82
2023-10-04T21:52:28.392Z,14.10
2023-10-04T21:54:55.375Z,14.05
2023-10-04T21:57:24.212Z,12.73
2023-10-04T21:59:51.275Z,15.05
2023-10-04T22:02:20.352Z,12.52
2023-10-04T22:04:50.061Z,12.05
2023-10-04T22:07:21.926Z,18.73
2023-10-04T22:09:52.555Z,13.90
2023-10-04T22:12:23.168Z,15.73
2023-10-04T22:14:51.677Z,16.42
2023-10-04T22:17:20.143Z,14.20
2023-10-04T22:19:47.143Z,15.93
2023-10-04T22:22:15.940Z,13.23
2023-10-04T22:24:54.736Z,18.23
2023-10-04T22:27:31.178Z,14.68
2023-10-04T22:29:59.093Z,13.38
2023-10-04T22:32:27.225Z,15.18
2023-10-04T22:34:54.630Z,13.57
2023-10-04T22:37:22.296Z,15.23
2023-10-04T22:39:56.254Z,13.80
2023-10-04T22:42:23.829Z,14.32
2023-10-04T22:44:52.408Z,11.85
2023-10-04T22:47:20.682Z,13.10
2023-10-04T22:49:47.958Z,14.18
2023-10-04T22:52:15.754Z,13.23
2023-10-04T22:54:44.743Z,12.60
2023-10-04T22:57:12.952Z,12.57
2023-10-04T22:59:39.856Z,12.50
2023-10-04T23:02:08.186Z,15.02
2023-10-04T23:04:35.274Z,12.23
2023-10-04T23:07:03.490Z,14.02
2023-10-04T23:09:32.367Z,13.25
2023-10-04T23:11:59.832Z,13.18
2023-10-04T23:14:26.668Z,10.77
2023-10-04T23:16:58.791Z,12.55
2023-10-04T23:19:29.397Z,13.43
2023-10-04T23:22:10.306Z,11.57
2023-10-04T23:24:37.232Z,16.65
2023-10-04T23:27:04.584Z,12.25
2023-10-04T23:29:31.385Z,13.10
2023-10-04T23:32:00.473Z,13.55
2023-10-04T23:34:27.447Z,13.43
2023-10-04T23:36:54.720Z,11.57
2023-10-04T23:39:30.677Z,11.20
2023-10-04T23:41:58.079Z,11.30
2023-10-04T23:44:25.549Z,11.93
2023-10-04T23:46:59.162Z,13.20
2023-10-04T23:49:26.252Z,11.10
2023-10-04T23:51:53.883Z,11.20
2023-10-04T23:54:23.227Z,10.75
2023-10-04T23:56:56.275Z,10.63
2023-10-04T23:59:23.623Z,8.85
